Barter Island LRRS, AK

12:12 AM AKDT on July 29, 2014 (GMT -0800)
Arctic Village (PARC) Elev 2090 ft | 68.11 °N, 145.58 °W | Change Station

Current weather conditions updated 16 minutes ago

Mostly Cloudy
Mostly Cloudy
52 °F
Feels Like 52 °F
N
5
Wind Variable Wind from South

Today is forecast to be Much Cooler than yesterday.

Today
High -- | Low -- °F
--% Chance of Precip.
Yesterday
High -- | Low -- °F
Precip. -- in
2:23 AM 0:44 AM
Waxing Crescent, 5% visible
Pressure 30.18 in
Visibility 10.0 miles
Clouds Scattered Clouds 3400 ft
Mostly Cloudy 6500 ft
Dew Point 41 °F
Humidity 67%
Rainfall 0.00 in
Snow Depth Not available.
UV 0 out of 12
Pollen Not available.
Air Quality Not available.
Flu Activity Not available.
METAR PARC 290756Z AUTO 17004KT 10SM SCT034 BKN065 11/05 A3018 RMK AO1

More Conditions Fewer Conditions

Pressure 30.18 in
Visibility 10.0 miles
Clouds Scattered Clouds 3400 ft
Mostly Cloudy 6500 ft
Dew Point 41 °F
Humidity 67%
Rainfall 0.00 in
Snow Depth Not available.
UV 0 out of 12
Pollen Not available.
Air Quality Not available.
Flu Activity Not available.
METAR PARC 290756Z AUTO 17004KT 10SM SCT034 BKN065 11/05 A3018 RMK AO1

More Conditions Fewer Conditions

10-Day Weather Forecast

Almanac

Astronomy

Jul. 29, 2014 Rise Set
Actual Time 2:23 AM AKDT 12:44 AM AKDT
Civil Twilight Sun does not rise Sun does not rise
Nautical Twilight Sun does not rise Sun does not rise
Astronomical Twilight Sun does not rise Sun does not rise
Moon 8:27 AM AKDT 10:36 PM AKDT
Length of Visible Light 24h 00m
Length of Day
22h 21m
Tomorrow will be 25m 11s shorter.
Waxing Crescent, 5% of the Moon is Illuminated
Today
Waxing Crescent
Aug 3
First Quarter
Aug 10
Full
Aug 17
Last Quarter
Aug 25
New

Community

WunderPhotos

Upload Photos

1,738,654 photos uploaded!

Nearby

Snow Depth

Station Depth Elevation
Imnaviat Creek 0 in 3050 ft
Atigun Pass 0 in 4800 ft
Fort Yukon 3 in 430 ft
Coldfoot 0 in 1040 ft
Gobblers Knob 0 in 2030 ft

Earthquake Activity

City Distance Mag. Time & Date
No recent earthquake activity has been reported nearby.
Minimum magnitude displayed is 2.5.

Coastal Water Temperatures

Place Temperature
No Stations Reporting

Nearby Weather Stations

There are no personal weather stations in this area.